Time;durP1;ratioP1;P1;durP2;ratioP2;P2;SDS_P1;SDS_P2;PMS_P1;PMS_P2;Temp;Humidity;BMP_temperature;BMP_pressure;BME280_temperature;BME280_humidity;BME280_pressure;Samples;Min_cycle;Max_cycle;Signal;HPM_P1;HPM_P2
2023/04/11 00:01:52;;;;;;;14.23;3.25;;;;;;;10.33;83.37;100719.06;5128624;27;20043;-71
2023/04/11 00:04:19;;;;;;;18.33;3.65;;;;;;;10.33;83.62;100726.94;5127863;27;20039;-71
2023/04/11 00:06:47;;;;;;;18.80;4.05;;;;;;;10.32;83.58;100730.50;5135047;27;20038;-70
2023/04/11 00:09:15;;;;;;;15.82;3.25;;;;;;;10.29;83.57;100735.84;5125532;27;20039;-70
2023/04/11 00:11:42;;;;;;;16.15;3.72;;;;;;;10.28;83.58;100734.13;5141443;27;20032;-70
2023/04/11 00:14:11;;;;;;;15.63;3.22;;;;;;;10.28;83.55;100730.63;5116081;27;20096;-71
2023/04/11 00:16:40;;;;;;;13.50;3.90;;;;;;;10.24;83.62;100735.16;5149600;27;20586;-70
2023/04/11 00:19:08;;;;;;;16.45;4.28;;;;;;;10.20;83.43;100725.59;5148808;27;20035;-70
2023/04/11 00:21:38;;;;;;;15.45;3.45;;;;;;;10.16;83.34;100718.72;5150500;27;20047;-70
2023/04/11 00:24:07;;;;;;;18.83;4.40;;;;;;;10.12;83.53;100724.97;5121466;27;20039;-70
2023/04/11 00:26:34;;;;;;;20.50;4.63;;;;;;;10.08;83.64;100732.97;5115368;27;20040;-68
2023/04/11 00:29:01;;;;;;;21.25;4.95;;;;;;;10.08;83.44;100734.75;5117858;27;20110;-71
2023/04/11 00:31:30;;;;;;;19.70;3.95;;;;;;;10.08;83.21;100732.09;5115905;27;20550;-71
2023/04/11 00:33:59;;;;;;;16.13;4.10;;;;;;;10.05;83.61;100734.81;5112607;27;20032;-71
2023/04/11 00:36:26;;;;;;;21.02;4.32;;;;;;;10.01;83.46;100735.84;5144993;27;20051;-71
2023/04/11 00:38:53;;;;;;;17.60;4.30;;;;;;;9.97;83.19;100747.38;5146392;27;20064;-71
2023/04/11 00:41:21;;;;;;;18.23;4.32;;;;;;;9.91;83.16;100740.50;5111342;27;20059;-71
2023/04/11 00:43:48;;;;;;;19.00;4.43;;;;;;;9.85;83.33;100743.31;5123004;27;20133;-71
2023/04/11 00:46:17;;;;;;;20.00;4.78;;;;;;;9.78;83.19;100743.47;5126625;27;20032;-71
2023/04/11 00:48:44;;;;;;;19.35;4.53;;;;;;;9.70;83.22;100742.00;5121675;27;20050;-71
2023/04/11 00:51:11;;;;;;;14.50;4.10;;;;;;;9.63;83.46;100744.78;5117173;27;20510;-71
2023/04/11 00:53:39;;;;;;;16.50;4.65;;;;;;;9.59;83.58;100747.53;5148743;27;20050;-71
2023/04/11 00:56:08;;;;;;;17.00;4.53;;;;;;;9.57;83.68;100752.84;5137585;27;20118;-71
2023/04/11 00:58:37;;;;;;;20.13;5.32;;;;;;;9.56;83.89;100748.50;5115716;27;20046;-71
2023/04/11 01:01:08;;;;;;;22.90;4.97;;;;;;;9.58;84.17;100748.44;5149005;27;20340;-71
2023/04/11 01:03:37;;;;;;;20.88;5.05;;;;;;;9.59;83.88;100753.69;5149172;27;20053;-71
2023/04/11 01:06:08;;;;;;;20.85;5.32;;;;;;;9.60;83.64;100749.28;5128774;27;20120;-71
2023/04/11 01:08:39;;;;;;;26.95;4.90;;;;;;;9.59;83.77;100748.41;5116512;27;20039;-71
2023/04/11 01:11:08;;;;;;;21.13;5.30;;;;;;;9.61;83.58;100751.84;5122765;27;20040;-71
2023/04/11 01:13:40;;;;;;;27.00;5.90;;;;;;;9.57;83.51;100754.59;5115846;27;20036;-71
2023/04/11 01:16:08;;;;;;;22.48;5.32;;;;;;;9.57;83.49;100757.25;5126862;27;20122;-71
2023/04/11 01:18:36;;;;;;;20.48;4.72;;;;;;;9.55;83.52;100756.44;5121026;27;20031;-71
2023/04/11 01:21:03;;;;;;;21.65;5.53;;;;;;;9.54;83.59;100749.44;5125431;27;20036;-71
2023/04/11 01:23:33;;;;;;;31.73;5.88;;;;;;;9.52;83.41;100744.22;5135858;27;20039;-71
2023/04/11 01:26:00;;;;;;;25.73;5.65;;;;;;;9.51;83.51;100746.91;5126249;27;20044;-70
2023/04/11 01:28:27;;;;;;;24.30;6.22;;;;;;;9.52;83.26;100751.25;5139288;27;20048;-70
2023/04/11 01:30:54;;;;;;;23.02;5.60;;;;;;;9.48;83.33;100746.06;5114831;27;20182;-71
2023/04/11 01:33:22;;;;;;;24.63;6.05;;;;;;;9.44;83.08;100743.56;5135562;27;20040;-71
2023/04/11 01:35:49;;;;;;;27.73;6.35;;;;;;;9.37;82.98;100747.28;5131100;27;20074;-70
2023/04/11 01:38:16;;;;;;;31.40;5.60;;;;;;;9.30;83.21;100743.94;5122435;27;20065;-71
2023/04/11 01:40:44;;;;;;;21.90;5.20;;;;;;;9.20;83.18;100748.59;5145852;27;20107;-71
2023/04/11 01:43:11;;;;;;;26.40;5.75;;;;;;;9.09;83.41;100745.38;5122056;27;20044;-71
2023/04/11 01:45:40;;;;;;;32.67;6.03;;;;;;;9.01;83.54;100741.16;5118039;27;20035;-70
2023/04/11 01:48:07;;;;;;;28.65;5.65;;;;;;;8.94;83.57;100754.50;5146485;27;20043;-71
2023/04/11 01:50:34;;;;;;;25.02;5.65;;;;;;;8.86;83.76;100749.44;5128278;27;20035;-71
2023/04/11 01:53:02;;;;;;;27.77;5.97;;;;;;;8.82;84.06;100758.28;5129588;27;20028;-71
2023/04/11 01:55:30;;;;;;;25.20;5.75;;;;;;;8.79;84.23;100761.00;5128940;27;20039;-70
2023/04/11 01:57:57;;;;;;;29.45;5.90;;;;;;;8.76;84.40;100759.28;5126528;27;20036;-71
2023/04/11 02:00:24;;;;;;;24.02;5.32;;;;;;;8.73;84.29;100762.03;5128934;27;20035;-71
2023/04/11 02:02:51;;;;;;;24.15;5.53;;;;;;;8.68;84.49;100772.66;5145093;27;20039;-70
2023/04/11 02:05:19;;;;;;;26.48;6.25;;;;;;;8.66;84.86;100773.56;5122107;27;20063;-71
2023/04/11 02:07:46;;;;;;;24.45;5.68;;;;;;;8.65;84.89;100774.44;5142469;27;20044;-71
2023/04/11 02:10:17;;;;;;;23.05;5.60;;;;;;;8.67;85.19;100770.03;5126732;27;20127;-71
2023/04/11 02:12:44;;;;;;;22.98;5.30;;;;;;;8.76;85.19;100776.84;5127907;27;20035;-71
2023/04/11 02:15:12;;;;;;;27.45;5.88;;;;;;;8.81;85.37;100778.47;5145052;27;20527;-71
2023/04/11 02:17:43;;;;;;;28.95;5.55;;;;;;;8.90;84.86;100781.78;5118128;27;20060;-71
2023/04/11 02:20:12;;;;;;;23.80;4.38;;;;;;;8.93;84.72;100785.19;5124905;27;20111;-71
2023/04/11 02:22:40;;;;;;;21.92;4.10;;;;;;;8.97;84.52;100786.84;5141695;27;20043;-71
2023/04/11 02:25:07;;;;;;;30.73;5.35;;;;;;;9.00;84.41;100780.66;5146039;27;20047;-71
2023/04/11 02:27:34;;;;;;;26.80;5.93;;;;;;;9.05;83.84;100791.03;5141196;27;20043;-71
2023/04/11 02:30:05;;;;;;;23.73;4.72;;;;;;;9.00;83.89;100778.84;5118074;27;20051;-71
2023/04/11 02:32:34;;;;;;;26.17;5.15;;;;;;;8.97;83.85;100773.69;5131962;27;20048;-71
2023/04/11 02:35:03;;;;;;;27.73;4.40;;;;;;;8.91;83.68;100779.09;5117456;27;20047;-70
2023/04/11 02:37:30;;;;;;;24.40;4.78;;;;;;;8.84;83.97;100773.16;5121418;27;20071;-70
2023/04/11 02:39:57;;;;;;;24.17;4.90;;;;;;;8.81;84.21;100777.59;5114947;27;20498;-70
2023/04/11 02:42:24;;;;;;;24.10;4.45;;;;;;;8.79;84.22;100782.88;5108513;27;20101;-71
2023/04/11 02:44:54;;;;;;;22.20;4.18;;;;;;;8.77;84.56;100786.47;5124115;27;20040;-71
2023/04/11 02:47:25;;;;;;;33.58;5.78;;;;;;;8.76;84.33;100782.09;5123746;27;20068;-70
2023/04/11 02:49:55;;;;;;;28.00;5.63;;;;;;;8.76;84.46;100790.00;5135830;27;20044;-70
2023/04/11 02:52:28;;;;;;;22.35;4.82;;;;;;;8.76;84.78;100788.22;5119922;27;20129;-70
2023/04/11 02:54:55;;;;;;;27.20;4.82;;;;;;;8.78;84.62;100790.81;5113929;27;20627;-71
2023/04/11 02:57:22;;;;;;;25.13;5.88;;;;;;;8.77;84.66;100789.94;5124927;27;20126;-71
2023/04/11 02:59:49;;;;;;;29.63;4.93;;;;;;;8.75;84.62;100783.84;5112653;27;20036;-71
2023/04/11 03:02:23;;;;;;;28.08;4.68;;;;;;;8.75;84.41;100790.88;5142620;27;20046;-72
2023/04/11 03:04:51;;;;;;;23.90;5.10;;;;;;;8.74;84.24;100790.03;5128717;27;20577;-71
2023/04/11 03:07:18;;;;;;;24.73;5.60;;;;;;;8.68;84.41;100791.03;5129487;27;20040;-70
2023/04/11 03:09:45;;;;;;;23.20;5.13;;;;;;;8.70;84.74;100791.00;5122638;27;20439;-72
2023/04/11 03:12:12;;;;;;;27.95;5.43;;;;;;;8.72;84.60;100796.19;5125570;27;20528;-71
2023/04/11 03:14:51;;;;;;;21.52;4.72;;;;;;;8.69;84.37;100797.16;5116932;27;20063;-70
2023/04/11 03:17:19;;;;;;;21.23;4.75;;;;;;;8.67;84.15;100785.81;5122937;27;20544;-70
2023/04/11 03:19:47;;;;;;;27.10;4.93;;;;;;;8.64;84.10;100792.00;5098697;27;20048;-70
2023/04/11 03:22:14;;;;;;;20.92;4.50;;;;;;;8.64;84.05;100793.78;5129180;27;20067;-70
2023/04/11 03:24:41;;;;;;;22.30;4.20;;;;;;;8.67;84.08;100796.31;5120983;27;20054;-70
2023/04/11 03:27:08;;;;;;;21.83;4.50;;;;;;;8.67;83.84;100805.06;5109457;27;20534;-70
2023/04/11 03:29:39;;;;;;;24.27;4.80;;;;;;;8.68;83.87;100801.56;5122936;27;20058;-70
2023/04/11 03:32:13;;;;;;;20.42;4.82;;;;;;;8.72;83.84;100804.09;5115722;27;21117;-71
2023/04/11 03:34:40;;;;;;;24.42;4.35;;;;;;;8.73;83.72;100804.06;5116925;27;20117;-70
2023/04/11 03:37:10;;;;;;;21.27;4.05;;;;;;;8.78;83.58;100814.47;5119225;27;20128;-70
2023/04/11 03:39:37;;;;;;;24.73;4.30;;;;;;;8.76;83.13;100813.66;5121787;27;20054;-70
2023/04/11 03:42:05;;;;;;;24.13;4.20;;;;;;;8.74;83.16;100816.31;5112312;27;20048;-70
2023/04/11 03:44:32;;;;;;;21.60;4.00;;;;;;;8.71;82.97;100829.53;5123702;27;20035;-71
2023/04/11 03:47:00;;;;;;;20.55;3.20;;;;;;;8.68;82.90;100834.84;5121457;27;20042;-71
2023/04/11 03:49:35;;;;;;;22.42;3.33;;;;;;;8.68;82.50;100834.84;5109919;27;20571;-70
2023/04/11 03:52:04;;;;;;;16.25;3.13;;;;;;;8.69;82.25;100844.47;5109874;27;20040;-70
2023/04/11 03:54:31;;;;;;;17.08;3.45;;;;;;;8.68;82.04;100837.47;5125139;27;20040;-71
2023/04/11 03:56:58;;;;;;;12.82;3.15;;;;;;;8.66;82.07;100841.88;5124093;27;20044;-70
2023/04/11 03:59:28;;;;;;;15.30;2.30;;;;;;;8.69;81.51;100847.09;5124003;27;20031;-70
2023/04/11 04:02:02;;;;;;;17.13;3.10;;;;;;;8.67;81.37;100849.75;5106623;27;20047;-71
2023/04/11 04:04:32;;;;;;;16.02;3.10;;;;;;;8.64;81.62;100836.69;5124996;27;20040;-71
2023/04/11 04:07:09;;;;;;;27.60;3.20;;;;;;;8.62;81.57;100848.97;5127238;27;20035;-71
2023/04/11 04:09:40;;;;;;;20.17;3.60;;;;;;;8.62;81.76;100845.50;5109600;27;20036;-70
2023/04/11 04:12:08;;;;;;;17.40;3.00;;;;;;;8.58;81.85;100847.34;5126773;27;20495;-70
2023/04/11 04:14:51;;;;;;;12.93;3.00;;;;;;;8.52;82.05;100858.84;5121311;27;20079;-71
2023/04/11 04:17:18;;;;;;;13.65;3.03;;;;;;;8.51;82.03;100856.22;5113970;27;20036;-70
2023/04/11 04:19:47;;;;;;;16.30;3.42;;;;;;;8.48;82.15;100851.91;5110863;27;20051;-71
2023/04/11 04:22:16;;;;;;;14.27;2.75;;;;;;;8.48;82.24;100857.16;5125963;27;20080;-71
2023/04/11 04:24:52;;;;;;;14.48;2.40;;;;;;;8.47;81.88;100852.81;5130323;27;20042;-71
2023/04/11 04:27:23;;;;;;;15.77;2.92;;;;;;;8.51;81.47;100862.38;5127739;27;20838;-71
2023/04/11 04:29:51;;;;;;;16.73;2.33;;;;;;;8.53;81.49;100865.84;5120977;27;20040;-71
2023/04/11 04:32:36;;;;;;;13.70;2.42;;;;;;;8.53;81.19;100863.19;5122292;27;20063;-72
2023/04/11 04:35:12;;;;;;;15.38;2.58;;;;;;;8.54;81.46;100861.44;5122771;27;20036;-69
2023/04/11 04:37:44;;;;;;;13.82;2.75;;;;;;;8.57;81.25;100866.63;5110484;27;20037;-71
2023/04/11 04:40:30;;;;;;;14.60;2.10;;;;;;;8.55;81.58;100868.41;5101521;27;20036;-71
2023/04/11 04:43:02;;;;;;;;;;;;;;;8.55;81.66;100869.25;5097545;27;20046;-71
2023/04/11 04:45:46;;;;;;;13.38;2.05;;;;;;;8.58;80.99;100870.97;5119200;27;20093;-69
2023/04/11 04:48:18;;;;;;;9.45;2.13;;;;;;;8.59;81.89;100874.47;5118915;27;20087;-69
2023/04/11 04:50:46;;;;;;;14.85;2.58;;;;;;;8.60;80.77;100882.31;5124587;27;20634;-71
2023/04/11 04:53:14;;;;;;;10.18;1.80;;;;;;;8.59;80.23;100870.09;5124126;27;20032;-70
2023/04/11 04:55:46;;;;;;;7.63;2.22;;;;;;;8.55;80.41;100879.78;5107133;28;20094;-71
2023/04/11 04:58:15;;;;;;;10.32;1.98;;;;;;;8.62;81.61;100885.78;5124861;27;20611;-71
2023/04/11 05:00:42;;;;;;;17.92;3.08;;;;;;;8.71;81.50;100884.72;5118615;27;20074;-69
2023/04/11 05:03:19;;;;;;;9.60;2.17;;;;;;;8.81;81.58;100886.25;5112946;27;20123;-69
2023/04/11 05:05:48;;;;;;;13.05;2.38;;;;;;;8.89;80.83;100895.72;5116046;27;20039;-69
2023/04/11 05:08:18;;;;;;;9.40;2.58;;;;;;;8.97;80.74;100905.16;5134070;27;20059;-69
2023/04/11 05:10:45;;;;;;;11.98;2.05;;;;;;;8.96;78.93;100903.44;5115573;27;20047;-69
2023/04/11 05:13:13;;;;;;;10.85;2.20;;;;;;;8.90;78.74;100911.47;5114044;27;20522;-69
2023/04/11 05:15:47;;;;;;;13.63;2.33;;;;;;;8.81;78.85;100907.28;5125801;27;20060;-69
2023/04/11 05:18:14;;;;;;;17.50;2.67;;;;;;;8.75;78.83;100911.78;5127842;27;20039;-69
2023/04/11 05:20:42;;;;;;;14.80;1.95;;;;;;;8.68;78.88;100924.19;5125039;27;20068;-69
2023/04/11 05:23:13;;;;;;;13.45;2.60;;;;;;;8.63;79.15;100939.22;5141979;27;20055;-69
2023/04/11 05:25:40;;;;;;;12.20;2.40;;;;;;;8.59;79.27;100927.03;5124149;27;20040;-69
2023/04/11 05:28:11;;;;;;;9.63;1.80;;;;;;;8.54;79.50;100935.88;5119832;27;20518;-69
2023/04/11 05:30:38;;;;;;;13.43;2.40;;;;;;;8.54;79.60;100937.63;5121400;27;20047;-69
2023/04/11 05:33:05;;;;;;;15.95;2.38;;;;;;;8.53;79.21;100949.03;5120512;27;20040;-68
2023/04/11 05:35:33;;;;;;;12.73;2.88;;;;;;;8.47;78.81;100955.28;5105964;27;20512;-69
2023/04/11 05:38:01;;;;;;;17.45;2.38;;;;;;;8.48;78.93;100962.25;5127443;27;20032;-69
2023/04/11 05:40:28;;;;;;;9.93;1.77;;;;;;;8.54;78.45;100967.41;5129893;27;20092;-69
2023/04/11 05:42:55;;;;;;;13.73;2.15;;;;;;;8.59;78.34;100969.94;5126545;27;20039;-69
2023/04/11 05:45:25;;;;;;;9.77;2.08;;;;;;;8.70;78.37;100965.31;5147464;27;20255;-69
2023/04/11 05:47:52;;;;;;;11.18;2.20;;;;;;;8.82;78.21;100966.84;5129890;27;20031;-69
2023/04/11 05:50:19;;;;;;;16.60;2.60;;;;;;;8.90;77.50;100966.69;5121674;27;20108;-69
2023/04/11 05:52:46;;;;;;;16.15;2.33;;;;;;;8.92;77.61;100971.91;5147437;27;20050;-69
2023/04/11 05:55:13;;;;;;;14.57;2.75;;;;;;;8.97;77.56;100970.91;5121735;27;20035;-69
2023/04/11 05:57:40;;;;;;;16.33;2.80;;;;;;;9.03;77.26;100972.53;5159482;27;20053;-69
2023/04/11 06:00:12;;;;;;;19.40;2.67;;;;;;;8.98;77.08;100971.75;5128966;27;20038;-69
2023/04/11 06:02:41;;;;;;;9.68;2.33;;;;;;;8.91;77.08;100980.69;5147903;27;20623;-68
2023/04/11 06:05:10;;;;;;;10.63;2.33;;;;;;;8.95;76.98;100990.25;5126426;27;20036;-68
2023/04/11 06:07:39;;;;;;;12.98;2.78;;;;;;;9.05;76.93;100988.28;5117075;27;20043;-68
2023/04/11 06:10:07;;;;;;;9.70;2.30;;;;;;;9.15;76.82;100989.81;5127788;27;20047;-68
2023/04/11 06:12:35;;;;;;;10.52;2.53;;;;;;;9.31;76.35;100993.81;5127556;27;20032;-68
2023/04/11 06:15:02;;;;;;;18.63;2.53;;;;;;;9.38;76.73;100993.69;5108753;27;20147;-68
2023/04/11 06:17:29;;;;;;;13.85;2.55;;;;;;;9.39;76.00;100992.81;5133581;27;20043;-67
2023/04/11 06:19:57;;;;;;;12.50;2.13;;;;;;;9.39;76.08;100998.06;5130475;27;20035;-68
2023/04/11 06:22:24;;;;;;;17.35;2.72;;;;;;;9.44;76.17;101009.34;5147518;27;20499;-69
2023/04/11 06:24:51;;;;;;;13.50;2.38;;;;;;;9.50;76.09;101008.31;5139302;27;20055;-68
2023/04/11 06:27:18;;;;;;;16.15;3.53;;;;;;;9.47;75.84;101004.00;5119730;27;20040;-68
2023/04/11 06:29:45;;;;;;;15.18;2.78;;;;;;;9.44;75.60;101004.06;5130339;27;20043;-68
2023/04/11 06:32:12;;;;;;;11.95;2.03;;;;;;;9.41;75.97;101006.78;5146035;27;20484;-69
2023/04/11 06:34:40;;;;;;;14.50;3.25;;;;;;;9.41;75.94;101007.66;5127142;27;20485;-69
2023/04/11 06:37:07;;;;;;;15.98;2.50;;;;;;;9.45;75.76;101004.06;5129801;27;20063;-69
2023/04/11 06:39:35;;;;;;;16.63;2.85;;;;;;;9.46;76.17;101010.16;5132220;27;20074;-69
2023/04/11 06:42:02;;;;;;;14.88;2.47;;;;;;;9.50;76.19;101019.75;5116567;27;20122;-69
2023/04/11 06:44:31;;;;;;;14.05;2.40;;;;;;;9.59;76.02;101022.16;5129593;27;20124;-67
2023/04/11 06:46:59;;;;;;;17.48;2.45;;;;;;;9.59;75.99;101027.41;5151974;27;20035;-68
2023/04/11 06:49:27;;;;;;;11.95;2.72;;;;;;;9.63;75.80;101026.44;5134969;27;20814;-68
2023/04/11 06:51:54;;;;;;;11.15;2.22;;;;;;;9.68;75.63;101017.56;5132798;27;20051;-68
2023/04/11 06:54:22;;;;;;;14.82;2.88;;;;;;;9.77;75.68;101023.47;5142286;27;20069;-69
2023/04/11 06:56:49;;;;;;;14.63;2.42;;;;;;;9.93;75.33;101018.69;5123537;27;20043;-68
2023/04/11 06:59:20;;;;;;;14.05;2.50;;;;;;;9.97;74.96;101013.34;5100949;27;20040;-68
2023/04/11 07:01:48;;;;;;;13.43;2.20;;;;;;;10.04;74.30;101026.34;5144185;27;20498;-68
2023/04/11 07:04:15;;;;;;;12.68;2.25;;;;;;;10.08;73.82;101030.59;5138327;27;20530;-68
2023/04/11 07:06:43;;;;;;;13.15;2.50;;;;;;;10.15;73.90;101023.41;5123407;27;20042;-68
2023/04/11 07:09:11;;;;;;;11.02;2.05;;;;;;;10.25;73.29;101030.19;5139963;27;20424;-70
2023/04/11 07:11:39;;;;;;;12.05;2.30;;;;;;;10.35;73.35;101028.19;5133920;27;21098;-68
2023/04/11 07:14:06;;;;;;;12.20;2.40;;;;;;;10.51;72.65;101033.94;5135753;27;20043;-69
2023/04/11 07:16:33;;;;;;;16.63;2.70;;;;;;;10.68;71.97;101040.53;5133178;27;20473;-68
2023/04/11 07:19:02;;;;;;;16.98;2.92;;;;;;;10.78;71.41;101039.38;5129226;27;20130;-69
2023/04/11 07:21:32;;;;;;;14.45;2.05;;;;;;;10.79;70.85;101048.13;5151075;27;20043;-69
2023/04/11 07:24:02;;;;;;;10.35;1.88;;;;;;;10.84;70.79;101041.81;5148306;27;20070;-68
2023/04/11 07:26:31;;;;;;;11.60;2.35;;;;;;;11.03;70.26;101038.69;5150780;27;20055;-68
2023/04/11 07:28:58;;;;;;;10.68;2.22;;;;;;;11.10;69.48;101048.13;5150999;27;20040;-69
2023/04/11 07:31:26;;;;;;;18.13;2.65;;;;;;;11.10;69.31;101048.13;5149824;27;20036;-69
2023/04/11 07:33:53;;;;;;;13.30;2.78;;;;;;;11.05;69.04;101049.19;5143216;27;20150;-69
2023/04/11 07:36:21;;;;;;;14.73;2.60;;;;;;;11.01;69.44;101043.97;5151364;27;20551;-69
2023/04/11 07:38:48;;;;;;;18.02;2.55;;;;;;;11.03;69.01;101049.22;5129810;27;20039;-70
2023/04/11 07:41:15;;;;;;;16.23;2.15;;;;;;;11.15;68.79;101046.22;5130486;27;20036;-68
2023/04/11 07:43:42;;;;;;;11.75;2.63;;;;;;;11.13;68.13;101052.44;5133733;27;20039;-69
2023/04/11 07:46:10;;;;;;;13.00;1.90;;;;;;;11.09;68.39;101043.75;5140148;27;20043;-68
2023/04/11 07:48:38;;;;;;;9.05;2.38;;;;;;;11.14;67.74;101059.47;5145631;27;20047;-69
2023/04/11 07:51:05;;;;;;;13.90;1.60;;;;;;;11.23;66.76;101074.16;5134509;27;20527;-68
2023/04/11 07:53:32;;;;;;;9.55;2.20;;;;;;;11.17;66.75;101065.50;5140777;27;20553;-68
2023/04/11 07:55:59;;;;;;;12.30;2.35;;;;;;;11.08;65.85;101063.13;5130034;27;20525;-68
2023/04/11 07:58:27;;;;;;;9.85;1.90;;;;;;;11.02;66.51;101061.53;5129361;27;20098;-68
2023/04/11 08:00:54;;;;;;;11.88;2.78;;;;;;;11.01;66.33;101067.72;5110870;27;20878;-68
2023/04/11 08:03:22;;;;;;;9.60;1.83;;;;;;;11.05;65.58;101063.22;5137442;27;20043;-68
2023/04/11 08:05:51;;;;;;;11.13;2.10;;;;;;;11.15;65.73;101055.91;5150933;27;20050;-68
2023/04/11 08:08:18;;;;;;;9.02;2.10;;;;;;;11.27;65.88;101063.47;5147865;27;20028;-68
2023/04/11 08:10:45;;;;;;;11.90;2.15;;;;;;;11.43;65.58;101077.09;5130392;27;20054;-68
2023/04/11 08:13:12;;;;;;;10.73;1.98;;;;;;;11.57;65.78;101074.00;5129997;27;20115;-68
2023/04/11 08:15:39;;;;;;;9.65;1.70;;;;;;;11.68;64.09;101089.50;5093366;27;20507;-69
2023/04/11 08:18:06;;;;;;;9.88;1.35;;;;;;;11.64;61.95;101085.25;5111670;27;20027;-68
2023/04/11 08:20:33;;;;;;;7.28;1.70;;;;;;;11.65;62.40;101087.84;5111335;27;20052;-70
2023/04/11 08:23:05;;;;;;;13.50;2.05;;;;;;;11.67;62.33;101089.56;5131897;27;20076;-70
2023/04/11 08:25:32;;;;;;;9.70;1.50;;;;;;;11.72;61.28;101107.00;5150389;27;20652;-70
2023/04/11 08:27:59;;;;;;;5.45;1.40;;;;;;;11.74;60.96;101112.22;5137977;27;20035;-70
2023/04/11 08:30:26;;;;;;;12.07;2.20;;;;;;;11.87;61.93;101110.06;5128837;27;20042;-70
2023/04/11 08:32:53;;;;;;;8.77;2.03;;;;;;;11.94;60.84;101124.84;5132471;27;20088;-70
2023/04/11 08:35:20;;;;;;;13.48;2.83;;;;;;;11.92;61.82;101119.56;5149943;27;20035;-68
2023/04/11 08:37:48;;;;;;;10.80;2.03;;;;;;;11.97;62.04;101122.06;5131654;27;20069;-69
2023/04/11 08:40:15;;;;;;;9.98;1.50;;;;;;;12.11;59.82;101124.31;5131070;27;20132;-69
2023/04/11 08:42:43;;;;;;;10.27;1.92;;;;;;;12.06;60.28;101129.75;5129322;27;20050;-69
2023/04/11 08:45:10;;;;;;;8.23;1.40;;;;;;;12.14;58.56;101115.44;5144445;27;20042;-68
2023/04/11 08:47:37;;;;;;;7.78;1.15;;;;;;;12.31;57.84;101117.53;5135720;27;20905;-68
2023/04/11 08:50:06;;;;;;;6.95;1.70;;;;;;;12.31;58.59;101125.47;5135089;27;20118;-68
2023/04/11 08:52:34;;;;;;;9.18;2.35;;;;;;;12.31;58.68;101130.75;5129653;27;20031;-69
2023/04/11 08:55:01;;;;;;;6.70;1.83;;;;;;;12.11;56.88;101134.88;5145568;27;20537;-69
2023/04/11 08:57:33;;;;;;;9.77;1.60;;;;;;;12.02;57.83;101135.16;5144979;27;20481;-69
2023/04/11 09:00:13;;;;;;;13.43;1.80;;;;;;;11.89;57.89;101150.50;5146059;27;20043;-69
2023/04/11 09:03:04;;;;;;;13.07;2.53;;;;;;;11.77;58.55;101142.06;5124841;27;20050;-68
2023/04/11 09:05:37;;;;;;;9.38;1.60;;;;;;;11.65;58.37;101147.69;5139159;27;20561;-69
2023/04/11 09:08:07;;;;;;;8.88;2.00;;;;;;;11.65;59.50;101140.66;5128387;27;20114;-68
2023/04/11 09:10:37;;;;;;;8.70;1.50;;;;;;;11.74;58.50;101142.16;5149022;27;20121;-68
2023/04/11 09:13:25;;;;;;;10.75;1.95;;;;;;;11.79;58.78;101140.22;5139300;27;20557;-68
2023/04/11 09:16:11;;;;;;;10.18;1.50;;;;;;;11.93;59.22;101139.81;5137513;27;20035;-69
2023/04/11 09:18:41;;;;;;;17.27;2.17;;;;;;;12.09;58.15;101142.00;5130638;27;20525;-68
2023/04/11 09:21:13;;;;;;;16.35;2.20;;;;;;;12.27;56.30;101140.53;5126916;27;20039;-68
2023/04/11 09:23:40;;;;;;;9.13;1.50;;;;;;;12.23;56.22;101129.19;5129550;27;20044;-68
2023/04/11 09:26:10;;;;;;;6.25;1.33;;;;;;;12.15;55.19;101152.38;5128686;27;20530;-69
2023/04/11 09:28:41;;;;;;;8.43;1.77;;;;;;;12.03;56.17;101151.00;5133286;27;20044;-69
2023/04/11 09:31:11;;;;;;;9.90;1.77;;;;;;;11.84;57.21;101149.81;5131906;27;20112;-68
2023/04/11 09:33:55;;;;;;;7.63;1.42;;;;;;;11.59;59.12;101163.72;5128877;27;20043;-69
2023/04/11 09:36:28;;;;;;;11.30;1.73;;;;;;;11.27;60.96;101162.88;5131346;27;20047;-68
2023/04/11 09:38:57;;;;;;;9.25;1.52;;;;;;;10.94;61.79;101174.31;5149210;27;20035;-69
2023/04/11 09:41:37;;;;;;;8.45;2.20;;;;;;;10.51;62.74;101165.75;5129873;27;20134;-69
2023/04/11 09:44:04;;;;;;;10.73;1.85;;;;;;;10.15;65.88;101164.84;5130377;27;20038;-68
2023/04/11 09:46:31;;;;;;;7.85;1.67;;;;;;;9.86;66.45;101161.09;5118596;27;20040;-68
2023/04/11 09:49:00;;;;;;;10.00;2.15;;;;;;;9.83;68.24;101159.38;5132654;27;20043;-68
2023/04/11 09:51:28;;;;;;;9.25;2.13;;;;;;;9.95;69.35;101167.00;5129773;27;20250;-68
2023/04/11 09:54:03;;;;;;;8.98;2.40;;;;;;;10.05;69.18;101170.31;5134312;27;21068;-69
2023/04/11 09:56:35;;;;;;;9.80;2.35;;;;;;;10.10;70.12;101178.13;5108966;27;20044;-68
2023/04/11 09:59:03;;;;;;;9.05;1.58;;;;;;;9.96;68.04;101167.91;5137322;27;20045;-69
2023/04/11 10:01:32;;;;;;;9.68;1.88;;;;;;;9.82;68.11;101168.16;5119557;27;20376;-68
2023/04/11 10:03:59;;;;;;;10.02;2.05;;;;;;;9.88;69.49;101177.72;5125648;27;20040;-68
2023/04/11 10:06:37;;;;;;;10.93;1.80;;;;;;;10.02;70.31;101164.25;5124706;27;20554;-68
2023/04/11 10:09:11;;;;;;;7.55;1.40;;;;;;;10.10;68.01;101155.25;5145807;27;20134;-68
2023/04/11 10:11:42;;;;;;;7.38;1.70;;;;;;;10.30;68.31;101171.50;5130679;27;20163;-68
2023/04/11 10:14:36;;;;;;;7.97;1.80;;;;;;;10.56;66.55;101163.84;5150984;27;20097;-69
2023/04/11 10:17:15;;;;;;;10.82;2.00;;;;;;;10.83;67.37;101168.47;5134391;27;20046;-68
2023/04/11 10:19:47;;;;;;;9.02;1.48;;;;;;;10.94;64.31;101162.88;5137296;27;20898;-68
2023/04/11 10:22:40;;;;;;;9.85;1.30;;;;;;;10.93;62.58;101164.66;5138635;27;20040;-68
2023/04/11 10:25:23;;;;;;;7.20;2.17;;;;;;;10.97;62.35;101162.81;5147655;27;20050;-68
2023/04/11 10:28:00;;;;;;;7.55;1.15;;;;;;;11.09;61.68;101173.03;5144020;27;20039;-68
2023/04/11 10:30:40;;;;;;;6.63;1.27;;;;;;;11.22;59.14;101176.19;5115957;27;20086;-68
2023/04/11 10:33:16;;;;;;;9.93;1.75;;;;;;;11.36;59.89;101165.25;5145258;27;20046;-67
2023/04/11 10:36:09;;;;;;;6.53;1.50;;;;;;;11.45;58.51;101158.84;5132533;27;20139;-68
2023/04/11 10:38:40;;;;;;;11.45;1.60;;;;;;;11.57;58.09;101157.63;5143706;27;20582;-68
2023/04/11 10:41:24;;;;;;;7.80;1.65;;;;;;;11.74;58.25;101157.13;5148883;27;20613;-68
2023/04/11 10:44:11;;;;;;;14.33;1.20;;;;;;;11.91;55.49;101157.47;5143872;27;20032;-68
2023/04/11 10:46:50;;;;;;;6.78;1.67;;;;;;;12.07;54.23;101160.53;5132693;27;20267;-68
2023/04/11 10:49:35;;;;;;;8.80;1.35;;;;;;;12.25;53.45;101151.16;5152163;27;20043;-68
2023/04/11 10:52:17;;;;;;;13.65;1.83;;;;;;;12.41;53.38;101146.25;5124607;27;20063;-68
2023/04/11 10:54:47;;;;;;;13.35;1.98;;;;;;;12.60;53.19;101163.28;5130964;27;20043;-68
2023/04/11 10:57:15;;;;;;;8.82;1.10;;;;;;;12.80;53.40;101149.34;5130756;27;20065;-68
2023/04/11 10:59:42;;;;;;;9.43;1.63;;;;;;;13.01;53.64;101145.97;5112417;27;20066;-68
2023/04/11 11:02:09;;;;;;;11.48;1.60;;;;;;;13.25;55.32;101138.06;5139695;27;20807;-68
2023/04/11 11:04:39;;;;;;;5.68;1.02;;;;;;;13.42;49.29;101133.94;5145406;27;20032;-69
2023/04/11 11:07:12;;;;;;;7.85;1.38;;;;;;;13.48;51.06;101162.88;5122192;27;20465;-67
2023/04/11 11:09:40;;;;;;;5.85;1.00;;;;;;;13.46;47.35;101152.31;5149157;27;20539;-68
2023/04/11 11:12:15;;;;;;;10.68;1.67;;;;;;;13.44;49.03;101155.94;5141322;27;20051;-68
2023/04/11 11:14:44;;;;;;;2.65;0.70;;;;;;;13.50;45.89;101168.94;5133250;27;20520;-68
2023/04/11 11:17:14;;;;;;;3.63;1.30;;;;;;;13.54;46.92;101165.28;5137486;27;20503;-68
2023/04/11 11:19:43;;;;;;;7.25;1.35;;;;;;;13.61;47.39;101166.75;5132034;27;20533;-68
2023/04/11 11:22:24;;;;;;;19.05;1.40;;;;;;;13.69;47.20;101184.13;5141784;27;20935;-69
2023/04/11 11:24:52;;;;;;;4.60;0.82;;;;;;;13.42;45.98;101184.25;5129771;27;20093;-69
2023/04/11 11:27:23;;;;;;;10.70;1.67;;;;;;;13.18;46.72;101184.19;5137682;27;20047;-69
2023/04/11 11:29:51;;;;;;;9.40;1.27;;;;;;;13.11;46.38;101186.22;5130592;27;20553;-68
2023/04/11 11:32:27;;;;;;;18.95;1.45;;;;;;;12.96;46.98;101189.38;5120551;27;20110;-69
2023/04/11 11:34:56;;;;;;;11.50;1.80;;;;;;;12.96;47.75;101181.44;5114559;27;20044;-68
2023/04/11 11:37:23;;;;;;;8.45;1.58;;;;;;;12.82;48.71;101182.78;5141837;27;20051;-68